SKBQ/BAQ METAR and TAF weather

Enter ICAO airport designator
Station Type Date Time Source
SKBQ METAR 2019/02/17 16:00 UTC NOAA

SKBQ 171600Z 05006KT 340V140 9999 FEW015 31/24 A2990


Station Type Date Time Source
SKBQ Decoded METAR 2019/02/17 16:00 UTC NOAA

Barranquilla / Ernestocortissoz, Colombia (SKBQ) 10-53N 074-47W 30M
Feb 17, 2019 - 11:00 AM EST / 2019.02.17 1600 UTC
Wind: from the NE (050 degrees) at 7 MPH (6 KT) (direction variable):0
Visibility: greater than 7 mile(s):0
Sky conditions: mostly clear
Temperature: 87 F (31 C)
Heat index: 95.7 F (35.4 C):1
Dew Point: 75 F (24 C)
Relative Humidity: 66%
Pressure (altimeter): 29.9 in. Hg (1012 hPa)
ob: SKBQ 171600Z 05006KT 340V140 9999 FEW015 31/24 A2990
cycle: 16

Station Type Date Time Source
SKBQ TAF 2019/02/17 12:45 UTC NOAA

TAF SKBQ 171100Z 1712/1812 36010KT 9999 SCT015 TX34/1718Z TN25/1811Z


Example: see airport list